createdAt,value
2022-11-15T00:07:14.929Z,72.34
2022-11-15T00:17:25.386Z,71.78
2022-11-15T00:27:29.785Z,70.79
2022-11-15T00:37:32.929Z,70.12
2022-11-15T00:47:37.667Z,69.89
2022-11-15T00:57:40.887Z,69.97
2022-11-15T01:07:45.646Z,69.81
2022-11-15T01:17:48.605Z,69.26
2022-11-15T01:27:53.149Z,68.78
2022-11-15T01:37:56.228Z,69.01
2022-11-15T01:48:02.379Z,68.96
2022-11-15T01:58:07.266Z,69.12
2022-11-15T02:08:21.330Z,69.31
2022-11-15T02:18:29.857Z,68.98
2022-11-15T02:28:57.774Z,69.18
2022-11-15T02:39:09.978Z,69.77
2022-11-15T02:49:15.431Z,70.17
2022-11-15T02:59:50.934Z,70.86
2022-11-15T03:10:03.531Z,71.39
2022-11-15T03:20:11.835Z,71.23
2022-11-15T03:30:16.133Z,71.15
2022-11-15T03:40:25.825Z,71.12
2022-11-15T03:50:29.935Z,71.43
2022-11-15T04:00:34.400Z,71.67
2022-11-15T04:10:37.849Z,72.38
2022-11-15T04:21:00.768Z,72.12
2022-11-15T04:31:03.353Z,72.43
2022-11-15T04:41:26.756Z,72.28
2022-11-15T04:51:48.496Z,73.16
2022-11-15T05:01:53.010Z,73.72
2022-11-15T05:11:56.593Z,73.07
2022-11-15T05:22:01.039Z,72.78
2022-11-15T05:32:07.050Z,72.46
2022-11-15T05:42:13.255Z,72.07
2022-11-15T05:52:21.546Z,71.31
2022-11-15T06:02:26.162Z,71.10
2022-11-15T06:12:29.201Z,71.10
2022-11-15T06:22:33.750Z,71.35
2022-11-15T06:32:36.759Z,70.88
2022-11-15T06:42:41.373Z,70.77
2022-11-15T06:52:44.497Z,70.09
2022-11-15T07:02:49.149Z,69.06
2022-11-15T07:12:52.096Z,67.71
2022-11-15T07:23:03.724Z,66.07
2022-11-15T07:33:06.968Z,66.66
2022-11-15T07:43:11.387Z,67.81
2022-11-15T07:53:14.393Z,67.08
2022-11-15T08:03:18.938Z,66.93
2022-11-15T08:13:22.633Z,66.98
2022-11-15T08:23:27.022Z,66.95
2022-11-15T08:33:30.685Z,67.42
2022-11-15T08:43:35.572Z,67.66
2022-11-15T08:53:41.511Z,67.77
2022-11-15T09:03:45.761Z,68.39
2022-11-15T09:13:50.827Z,68.26
2022-11-15T09:23:56.962Z,68.80
2022-11-15T09:33:59.828Z,68.50
2022-11-15T09:44:25.518Z,67.81
2022-11-15T10:05:00.438Z,68.16
2022-11-15T10:15:16.667Z,67.60
2022-11-15T10:25:31.281Z,67.91
2022-11-15T10:35:39.676Z,68.21
2022-11-15T10:45:45.005Z,67.61
2022-11-15T10:55:57.377Z,68.15
2022-11-15T11:06:17.636Z,68.07
2022-11-15T11:16:40.632Z,68.61
2022-11-15T11:26:57.114Z,68.78
2022-11-15T11:37:12.839Z,68.84
2022-11-15T11:47:26.005Z,68.95
2022-11-15T11:57:38.456Z,68.68
2022-11-15T12:07:50.055Z,69.03
2022-11-15T12:17:57.376Z,68.79
2022-11-15T12:28:08.920Z,68.02
2022-11-15T12:38:13.796Z,67.33
2022-11-15T12:49:01.634Z,67.09
2022-11-15T12:59:11.802Z,67.71
2022-11-15T13:09:51.780Z,67.38
2022-11-15T13:20:01.550Z,67.64
2022-11-15T13:30:20.758Z,67.55
2022-11-15T13:40:31.713Z,68.00
2022-11-15T13:50:53.777Z,68.33
2022-11-15T14:01:08.219Z,68.62
2022-11-15T14:11:19.095Z,68.93
2022-11-15T14:21:23.743Z,68.98
2022-11-15T14:31:29.821Z,69.16
2022-11-15T14:52:32.540Z,69.58
2022-11-15T15:02:39.464Z,67.99
2022-11-15T15:12:46.286Z,70.22
2022-11-15T15:22:52.933Z,71.49
2022-11-15T15:33:05.111Z,71.91
2022-11-15T15:43:13.955Z,71.92
2022-11-15T15:53:19.112Z,71.85
2022-11-15T16:03:42.842Z,70.97
2022-11-15T16:13:50.422Z,70.15
2022-11-15T16:24:06.161Z,69.05
2022-11-15T16:46:03.569Z,69.94
2022-11-15T16:56:28.712Z,70.94
2022-11-15T17:07:34.582Z,71.01
2022-11-15T17:17:50.429Z,71.16
2022-11-15T17:49:13.128Z,72.34
2022-11-15T17:59:26.761Z,73.43
2022-11-15T18:09:36.218Z,73.37
2022-11-15T18:19:52.210Z,74.09
2022-11-15T18:29:58.565Z,73.64
2022-11-15T18:40:04.314Z,73.16
2022-11-15T18:50:12.600Z,72.66
2022-11-15T19:00:27.080Z,72.14
2022-11-15T19:10:39.056Z,72.45
2022-11-15T19:20:55.476Z,72.89
2022-11-15T19:31:10.562Z,72.50
2022-11-15T19:41:17.849Z,72.53
2022-11-15T19:51:35.280Z,72.41
2022-11-15T20:01:39.720Z,72.34
2022-11-15T20:11:45.264Z,72.25
2022-11-15T20:21:48.397Z,72.08
2022-11-15T20:31:53.295Z,72.03
2022-11-15T20:41:56.390Z,71.94
2022-11-15T20:52:01.170Z,71.94
2022-11-15T21:02:04.589Z,71.63
2022-11-15T21:12:15.128Z,71.36
2022-11-15T21:22:18.447Z,71.65
2022-11-15T21:32:23.055Z,71.79
2022-11-15T21:42:36.214Z,71.61
2022-11-15T21:52:41.888Z,71.72
2022-11-15T22:02:47.842Z,72.20
2022-11-15T22:12:52.687Z,71.90
2022-11-15T22:22:55.799Z,72.18
2022-11-15T22:33:01.416Z,72.30
2022-11-15T22:43:06.817Z,72.24
2022-11-15T22:53:14.323Z,72.34
2022-11-15T23:03:18.009Z,73.21
2022-11-15T23:13:28.762Z,73.23
2022-11-15T23:23:32.710Z,73.45
2022-11-15T23:33:56.098Z,73.75
2022-11-15T23:43:59.116Z,73.56
2022-11-15T23:54:03.840Z,74.30
